Time;durP1;ratioP1;P1;durP2;ratioP2;P2;SDS_P1;SDS_P2;PMS_P1;PMS_P2;Temp;Humidity;BMP_temperature;BMP_pressure;BME280_temperature;BME280_humidity;BME280_pressure;Samples;Min_cycle;Max_cycle;Signal;HPM_P1;HPM_P2
2022/09/23 00:00:34;;;;;;;7.47;3.92;;;;;;;9.85;55.87;100224.59;7604217;32;37035;-73
2022/09/23 00:04:50;;;;;;;6.75;3.60;;;;;;;9.58;56.42;100217.22;7604094;32;40570;-72
2022/09/23 00:09:06;;;;;;;6.87;3.58;;;;;;;9.25;57.41;100223.63;7603955;32;41237;-73
2022/09/23 00:13:24;;;;;;;6.40;3.42;;;;;;;9.64;55.82;100223.56;7601945;32;37812;-72
2022/09/23 00:17:40;;;;;;;6.70;3.65;;;;;;;9.59;55.85;100219.69;7615859;32;37900;-72
2022/09/23 00:21:56;;;;;;;8.70;4.22;;;;;;;9.69;55.54;100215.44;7607536;32;39441;-73
2022/09/23 00:26:14;;;;;;;7.22;3.95;;;;;;;9.54;56.39;100221.56;7607353;32;40000;-72
2022/09/23 00:30:31;;;;;;;7.32;3.97;;;;;;;9.55;56.50;100215.00;7607219;32;36854;-72
2022/09/23 00:34:47;;;;;;;7.85;3.78;;;;;;;9.48;56.78;100211.66;7607185;32;37935;-73
2022/09/23 00:39:03;;;;;;;6.57;3.42;;;;;;;9.64;56.04;100204.50;7607363;32;39147;-72
2022/09/23 00:43:35;;;;;;;8.00;4.18;;;;;;;9.85;62.30;100200.94;7585550;32;40822;-73
2022/09/23 00:48:00;;;;;;;6.95;3.97;;;;;;;9.64;56.82;100204.50;7603404;32;37993;-73
2022/09/23 00:52:19;;;;;;;7.37;3.72;;;;;;;9.80;55.33;100198.16;7607099;32;37122;-72
2022/09/23 00:56:36;;;;;;;6.28;3.78;;;;;;;9.62;55.61;100191.12;7617976;32;39050;-72
2022/09/23 01:00:53;;;;;;;6.40;3.58;;;;;;;9.70;55.28;100193.41;7617991;32;40255;-72
2022/09/23 01:05:09;;;;;;;6.78;3.72;;;;;;;9.21;56.68;100198.84;7606899;32;37668;-72
2022/09/23 01:09:25;;;;;;;6.43;3.85;;;;;;;9.37;56.19;100189.78;7606958;32;37166;-72
2022/09/23 01:14:03;;;;;;;12.37;4.03;;;;;;;9.10;57.08;100194.34;7606830;32;39283;-73
2022/09/23 01:18:25;;;;;;;6.93;3.60;;;;;;;9.34;56.44;100198.44;7581870;32;40564;-73
2022/09/23 01:22:50;;;;;;;7.57;3.60;;;;;;;9.46;55.81;100192.06;7593205;32;37825;-72
2022/09/23 01:27:29;;;;;;;7.03;3.70;;;;;;;9.39;55.76;100187.62;7606169;32;37053;-72
2022/09/23 01:31:59;;;;;;;4.93;3.37;;;;;;;9.32;55.66;100178.84;7606458;32;39395;-72
2022/09/23 01:36:23;;;;;;;7.22;4.18;;;;;;;9.47;55.47;100182.78;7606309;32;40293;-72
2022/09/23 01:41:12;;;;;;;7.00;4.00;;;;;;;9.34;56.16;100179.41;7600185;32;38517;-73
2022/09/23 01:45:37;;;;;;;7.97;3.90;;;;;;;8.94;57.15;100183.25;7589355;32;37091;-72
2022/09/23 01:50:55;;;;;;;6.68;3.55;;;;;;;9.24;56.19;100184.72;7591233;32;39799;-73
2022/09/23 01:54:54;;;;;;;7.32;3.80;;;;;;;9.10;56.57;100186.16;7589066;32;39882;-71
2022/09/23 01:59:15;;;;;;;5.62;3.65;;;;;;;9.18;56.53;100183.03;7596823;32;38049;-72
2022/09/23 02:03:48;;;;;;;7.00;4.00;;;;;;;8.98;57.10;100178.94;7606540;32;37325;-72
2022/09/23 02:08:17;;;;;;;7.37;3.80;;;;;;;9.22;56.61;100186.88;7589386;32;40142;-73
2022/09/23 02:12:34;;;;;;;8.35;3.78;;;;;;;9.09;56.74;100181.78;7590783;32;39828;-73
2022/09/23 02:16:54;;;;;;;9.93;4.07;;;;;;;8.79;57.61;100188.47;7580337;33;37873;-73
2022/09/23 02:21:11;;;;;;;5.72;3.75;;;;;;;8.78;58.60;100182.22;7591004;32;37054;-73
2022/09/23 02:26:01;;;;;;;6.53;3.70;;;;;;;8.89;57.80;100174.22;7591188;32;39344;-73
2022/09/23 02:30:25;;;;;;;8.43;4.20;;;;;;;8.98;57.37;100180.84;7580143;33;41576;-73
2022/09/23 02:35:11;;;;;;;8.13;3.83;;;;;;;8.83;57.91;100193.16;7590558;32;38756;-73
2022/09/23 02:39:35;;;;;;;7.50;3.92;;;;;;;8.87;57.85;100189.97;7612532;32;37629;-73
2022/09/23 02:43:59;;;;;;;7.12;3.62;;;;;;;8.64;58.07;100184.47;7605740;32;37124;-73
2022/09/23 02:48:40;;;;;;;6.70;3.87;;;;;;;8.85;57.56;100182.03;7616299;32;39850;-73
2022/09/23 02:52:57;;;;;;;7.70;4.07;;;;;;;8.90;57.32;100184.84;7616141;32;37950;-72
2022/09/23 02:57:13;;;;;;;7.07;3.78;;;;;;;8.98;57.01;100189.81;7581411;32;36854;-73
2022/09/23 03:01:32;;;;;;;7.60;3.95;;;;;;;8.99;56.86;100191.47;7579783;33;39801;-73
2022/09/23 03:05:55;;;;;;;8.48;4.78;;;;;;;8.88;57.26;100197.84;7579598;33;39992;-73
2022/09/23 03:10:40;;;;;;;7.18;4.43;;;;;;;8.89;57.16;100196.78;7590430;32;37873;-73
2022/09/23 03:15:24;;;;;;;7.35;4.40;;;;;;;8.85;57.42;100203.78;7605354;32;37067;-73
2022/09/23 03:19:43;;;;;;;;;;;;;;;8.74;57.52;100191.94;7579768;32;40034;-72
2022/09/23 03:24:01;;;;;;;9.02;4.47;;;;;;;8.79;57.31;100193.91;7605330;32;40305;-73
2022/09/23 03:28:20;;;;;;;7.72;4.18;;;;;;;8.61;57.74;100186.88;7615821;32;36889;-73
2022/09/23 03:32:37;;;;;;;7.28;4.45;;;;;;;8.72;57.71;100187.84;7604792;32;38092;-73
2022/09/23 03:37:09;;;;;;;6.35;3.45;;;;;;;8.75;57.58;100187.34;7604648;32;39310;-73
2022/09/23 03:41:33;;;;;;;5.72;3.55;;;;;;;8.72;57.56;100182.41;7607814;32;40787;-73
2022/09/23 03:45:52;;;;;;;6.32;3.92;;;;;;;8.42;58.08;100183.56;7589105;32;38606;-73
2022/09/23 03:50:08;;;;;;;7.20;3.80;;;;;;;8.56;57.89;100184.06;7613321;32;36117;-73
2022/09/23 03:54:28;;;;;;;8.20;4.78;;;;;;;8.50;57.91;100185.87;7607481;32;39358;-73
2022/09/23 03:58:45;;;;;;;7.35;4.22;;;;;;;8.32;59.94;100188.81;7607726;32;40860;-73
2022/09/23 04:03:01;;;;;;;9.10;4.68;;;;;;;8.31;60.17;100181.75;7607687;32;38398;-72
2022/09/23 04:07:17;;;;;;;11.07;5.35;;;;;;;8.05;61.25;100189.47;7607764;32;37037;-73
2022/09/23 04:11:34;;;;;;;8.50;4.93;;;;;;;8.04;62.21;100190.53;7607494;32;40207;-73
2022/09/23 04:15:50;;;;;;;10.60;5.05;;;;;;;8.23;62.30;100185.69;7607580;32;40085;-73
2022/09/23 04:20:06;;;;;;;7.00;4.78;;;;;;;8.52;61.25;100189.19;7583659;32;37891;-73
2022/09/23 04:24:22;;;;;;;6.78;4.22;;;;;;;8.06;61.72;100196.53;7581585;33;38359;-73
2022/09/23 04:28:38;;;;;;;9.63;5.20;;;;;;;7.81;61.27;100194.19;7581578;33;40591;-73
2022/09/23 04:32:54;;;;;;;7.70;4.20;;;;;;;7.95;60.81;100198.25;7581377;33;41505;-73
2022/09/23 04:37:10;;;;;;;6.70;4.25;;;;;;;7.69;61.71;100197.81;7581393;33;37855;-73
2022/09/23 04:41:26;;;;;;;7.25;4.50;;;;;;;7.84;60.98;100205.38;7589298;32;37835;-72
2022/09/23 04:45:43;;;;;;;7.12;4.25;;;;;;;7.85;60.22;100201.62;7607231;32;39317;-73
2022/09/23 04:49:59;;;;;;;6.72;3.75;;;;;;;7.79;60.28;100208.00;7607155;32;40049;-73
2022/09/23 04:54:15;;;;;;;8.25;4.15;;;;;;;7.77;60.00;100212.03;7606910;32;37849;-72
2022/09/23 04:58:33;;;;;;;6.15;3.75;;;;;;;7.98;59.11;100213.22;7618297;32;36945;-73
2022/09/23 05:02:50;;;;;;;7.18;4.35;;;;;;;8.38;58.09;100204.13;7606562;32;39235;-72
2022/09/23 05:07:06;;;;;;;6.87;4.28;;;;;;;8.32;58.75;100216.00;7606971;32;40853;-72
2022/09/23 05:11:23;;;;;;;9.70;4.80;;;;;;;8.53;58.57;100217.16;7598573;32;38360;-73
2022/09/23 05:15:39;;;;;;;5.43;3.78;;;;;;;8.39;58.99;100216.66;7580760;33;36848;-72
2022/09/23 05:19:56;;;;;;;7.90;4.28;;;;;;;8.22;60.17;100228.31;7580924;33;39079;-72
2022/09/23 05:24:12;;;;;;;8.13;4.87;;;;;;;8.31;60.52;100228.72;7580800;33;40020;-72
2022/09/23 05:28:31;;;;;;;6.65;4.05;;;;;;;8.26;61.09;100240.34;7601067;32;37848;-73
2022/09/23 05:32:47;;;;;;;9.07;4.37;;;;;;;8.19;62.19;100250.56;7606656;32;37726;-72
2022/09/23 05:37:04;;;;;;;11.18;5.35;;;;;;;8.36;63.76;100247.03;7606477;32;40904;-73
2022/09/23 05:41:21;;;;;;;10.13;5.95;;;;;;;8.63;64.29;100241.78;7606464;32;40123;-74
2022/09/23 05:45:38;;;;;;;10.52;5.68;;;;;;;8.71;63.65;100235.94;7606366;32;38085;-74
2022/09/23 05:49:54;;;;;;;14.60;5.53;;;;;;;8.33;63.53;100244.78;7599356;32;37912;-74
2022/09/23 05:54:15;;;;;;;9.82;5.75;;;;;;;8.76;62.46;100244.19;7590174;32;39234;-72
2022/09/23 05:58:31;;;;;;;13.02;5.78;;;;;;;8.89;61.60;100248.44;7554879;33;40767;-73
2022/09/23 06:02:48;;;;;;;12.50;5.87;;;;;;;8.75;61.20;100252.59;7554802;32;37729;-72
2022/09/23 06:07:04;;;;;;;12.10;5.28;;;;;;;8.89;60.84;100245.72;7596728;32;38000;-73
2022/09/23 06:11:20;;;;;;;9.32;4.97;;;;;;;9.00;60.82;100244.81;7584901;32;39631;-74
2022/09/23 06:15:37;;;;;;;10.10;5.50;;;;;;;8.93;60.85;100244.13;7589132;32;39874;-72
2022/09/23 06:19:53;;;;;;;10.07;5.00;;;;;;;9.29;60.60;100246.53;7580023;33;38814;-72
2022/09/23 06:24:09;;;;;;;7.65;4.57;;;;;;;8.83;62.43;100241.28;7580198;33;38170;-74
2022/09/23 06:28:31;;;;;;;7.85;4.50;;;;;;;8.82;63.52;100248.59;7587874;32;40033;-73
2022/09/23 06:32:51;;;;;;;10.43;5.72;;;;;;;9.13;63.15;100251.78;7585978;32;41546;-72
2022/09/23 06:37:07;;;;;;;9.77;5.32;;;;;;;9.30;63.16;100240.03;7587563;32;37869;-72
2022/09/23 06:41:34;;;;;;;7.80;4.90;;;;;;;9.19;63.51;100242.62;7602559;32;37854;-72
2022/09/23 06:45:57;;;;;;;9.27;4.87;;;;;;;9.59;62.69;100240.66;7590782;32;40092;-73
2022/09/23 06:50:13;;;;;;;8.20;5.03;;;;;;;9.95;61.47;100243.75;7579918;32;40729;-73
2022/09/23 06:54:30;;;;;;;9.57;5.00;;;;;;;10.26;60.64;100238.62;7585283;32;37857;-74
2022/09/23 06:58:46;;;;;;;9.15;5.18;;;;;;;10.34;61.37;100251.81;7594174;32;37171;-74
2022/09/23 07:03:07;;;;;;;9.43;5.22;;;;;;;10.04;62.26;100249.59;7593185;32;39336;-75
2022/09/23 07:07:23;;;;;;;10.18;4.53;;;;;;;10.51;61.29;100247.03;7599876;32;39884;-75
2022/09/23 07:11:39;;;;;;;8.55;5.22;;;;;;;11.03;60.01;100234.59;7604687;32;37652;-76
2022/09/23 07:16:00;;;;;;;9.20;4.87;;;;;;;10.45;63.90;100242.66;7586898;32;37097;-76
2022/09/23 07:20:17;;;;;;;8.43;4.62;;;;;;;11.07;60.22;100232.16;7592305;32;39943;-75
2022/09/23 07:24:33;;;;;;;9.13;5.12;;;;;;;11.39;59.35;100223.03;7590620;32;40033;-75
2022/09/23 07:28:54;;;;;;;8.88;4.93;;;;;;;10.96;61.71;100233.19;7584530;32;37896;-76
2022/09/23 07:33:10;;;;;;;11.88;5.55;;;;;;;11.18;61.03;100228.41;7578890;33;37152;-77
2022/09/23 07:37:42;;;;;;;8.98;4.90;;;;;;;11.57;60.68;100232.66;7578475;32;39312;-76
2022/09/23 07:41:58;;;;;;;13.57;5.57;;;;;;;12.50;59.02;100230.94;7578651;33;39911;-76
2022/09/23 07:46:16;;;;;;;9.73;5.53;;;;;;;11.97;59.41;100226.53;7577572;33;37999;-76
2022/09/23 07:50:32;;;;;;;9.52;5.70;;;;;;;12.27;57.98;100224.91;7593533;32;37242;-77
2022/09/23 07:54:48;;;;;;;9.32;5.32;;;;;;;12.67;57.59;100231.47;7603472;32;39354;-76
2022/09/23 07:59:10;;;;;;;9.05;5.10;;;;;;;13.15;56.44;100223.72;7587781;32;39957;-77
2022/09/23 08:03:26;;;;;;;11.65;5.93;;;;;;;12.05;58.21;100232.56;7580621;32;38018;-77
2022/09/23 08:07:42;;;;;;;8.57;5.35;;;;;;;12.22;58.12;100230.37;7584689;32;37363;-77
2022/09/23 08:11:58;;;;;;;9.23;5.20;;;;;;;12.36;57.00;100222.47;7575043;33;39378;-76
2022/09/23 08:16:14;;;;;;;7.90;4.07;;;;;;;12.35;58.19;100234.50;7568706;33;39959;-75
2022/09/23 08:20:46;;;;;;;10.45;4.45;;;;;;;12.22;56.91;100227.66;7577440;33;38036;-79
2022/09/23 08:25:03;;;;;;;8.50;4.68;;;;;;;13.05;54.70;100225.66;7588301;32;37998;-77
2022/09/23 08:29:24;;;;;;;6.43;3.60;;;;;;;13.65;52.82;100220.28;7578851;32;39394;-76
2022/09/23 08:33:40;;;;;;;8.02;4.15;;;;;;;12.89;53.92;100217.50;7577361;33;41000;-76
2022/09/23 08:37:56;;;;;;;10.25;4.70;;;;;;;14.15;51.67;100217.50;7576613;33;37883;-76
2022/09/23 08:42:26;;;;;;;9.10;4.50;;;;;;;14.47;51.16;100214.25;7592414;32;37086;-75
2022/09/23 08:46:51;;;;;;;7.43;3.65;;;;;;;14.69;50.37;100212.97;7591698;32;39414;-75
2022/09/23 08:51:16;;;;;;;6.32;3.65;;;;;;;14.84;49.97;100205.41;7591050;32;39627;-75
2022/09/23 08:55:36;;;;;;;7.93;3.83;;;;;;;15.51;48.05;100195.59;7591146;32;37886;-75
2022/09/23 08:59:53;;;;;;;7.32;3.62;;;;;;;15.34;47.75;100196.06;7580525;33;37727;-74
2022/09/23 09:04:26;;;;;;;7.40;2.67;;;;;;;15.14;46.83;100197.13;7581066;33;39737;-74
2022/09/23 09:08:45;;;;;;;5.72;2.90;;;;;;;15.52;47.91;100188.97;7580568;33;40106;-75
2022/09/23 09:13:35;;;;;;;5.18;2.72;;;;;;;16.06;45.66;100193.19;7580266;33;38227;-78
2022/09/23 09:18:01;;;;;;;6.47;3.10;;;;;;;15.70;45.83;100188.16;7589747;32;37275;-78
2022/09/23 09:22:30;;;;;;;3.08;1.87;;;;;;;16.37;43.41;100183.59;7579261;32;39159;-78
2022/09/23 09:26:47;;;;;;;3.03;1.90;;;;;;;16.58;40.80;100184.09;7606309;32;39943;-77
2022/09/23 09:31:20;;;;;;;2.05;1.75;;;;;;;17.13;40.19;100173.16;7617648;32;39156;-78
2022/09/23 09:36:00;;;;;;;2.55;1.85;;;;;;;16.72;40.60;100173.91;7606465;32;37191;-78
2022/09/23 09:40:16;;;;;;;2.67;1.83;;;;;;;17.03;39.37;100167.84;7611694;32;40139;-77
2022/09/23 09:44:36;;;;;;;3.47;2.30;;;;;;;17.31;40.22;100162.31;7589597;32;39872;-77
2022/09/23 09:49:21;;;;;;;3.55;2.22;;;;;;;17.54;39.81;100154.94;7579851;33;38799;-77
2022/09/23 09:53:38;;;;;;;4.32;2.42;;;;;;;17.31;40.54;100162.31;7591685;32;37891;-78
2022/09/23 09:58:02;;;;;;;3.00;2.15;;;;;;;17.87;38.92;100158.38;7580428;33;40171;-78
2022/09/23 10:02:34;;;;;;;4.82;2.70;;;;;;;18.32;38.17;100147.31;7580834;33;39981;-78
2022/09/23 10:07:23;;;;;;;4.75;2.75;;;;;;;18.32;38.45;100144.56;7591464;32;38018;-79
2022/09/23 10:11:40;;;;;;;4.97;2.65;;;;;;;18.28;39.38;100149.09;7580237;32;36746;-79
2022/09/23 10:15:58;;;;;;;4.95;2.40;;;;;;;17.93;38.79;100148.00;7580230;33;40107;-78
2022/09/23 10:20:15;;;;;;;6.00;2.62;;;;;;;17.76;40.43;100145.91;7602320;32;40175;-79
2022/09/23 10:24:35;;;;;;;7.15;2.75;;;;;;;16.98;39.98;100143.16;7617027;32;38100;-76
2022/09/23 10:28:54;;;;;;;6.70;3.00;;;;;;;18.12;39.11;100142.31;7616928;32;36772;-77
2022/09/23 10:33:26;;;;;;;5.25;2.87;;;;;;;18.62;36.59;100139.38;7605766;32;40095;-77
2022/09/23 10:37:48;;;;;;;6.40;3.30;;;;;;;17.78;40.14;100138.13;7612214;32;39878;-78
2022/09/23 10:47:22;;;;;;;4.90;2.62;;;;;;;18.12;36.76;100137.59;7614419;32;37245;-77
2022/09/23 10:51:58;;;;;;;5.05;2.65;;;;;;;17.58;39.15;100137.47;7605806;32;39322;-77
2022/09/23 10:56:38;;;;;;;3.70;2.40;;;;;;;18.12;37.68;100128.53;7605485;32;40860;-78
2022/09/23 11:01:18;;;;;;;4.62;3.05;;;;;;;18.73;35.48;100128.84;7613568;32;38738;-77
2022/09/23 11:06:10;;;;;;;3.70;2.20;;;;;;;18.68;36.10;100127.06;7605491;32;37244;-77
2022/09/23 11:10:54;;;;;;;3.90;2.20;;;;;;;18.09;35.86;100129.97;7605370;32;39455;-78
2022/09/23 11:15:41;;;;;;;4.03;2.75;;;;;;;18.74;33.39;100114.72;7614390;32;39915;-78
2022/09/23 11:20:20;;;;;;;4.32;1.90;;;;;;;20.32;30.10;100103.84;7614564;32;38047;-76
2022/09/23 11:24:39;;;;;;;6.90;3.90;;;;;;;20.40;29.45;100095.53;7605213;32;36989;-77
2022/09/23 11:29:15;;;;;;;8.15;5.07;;;;;;;21.45;28.71;100088.63;7604842;32;38934;-78
2022/09/23 11:33:58;;;;;;;5.15;2.67;;;;;;;22.13;28.10;100086.44;7604806;32;40884;-78
2022/09/23 11:38:17;;;;;;;6.40;3.07;;;;;;;20.92;30.67;100086.22;7604487;32;37960;-78
2022/09/23 11:42:44;;;;;;;3.78;2.17;;;;;;;21.00;31.44;100087.28;7604607;32;37772;-77
2022/09/23 11:47:20;;;;;;;5.45;2.22;;;;;;;20.57;30.13;100083.56;7604494;32;39314;-78
2022/09/23 11:51:57;;;;;;;4.00;1.90;;;;;;;21.19;31.02;100084.09;7615559;32;40939;-77
2022/09/23 11:56:33;;;;;;;5.30;1.98;;;;;;;21.03;30.30;100071.97;7604061;32;38793;-76
2022/09/23 12:00:58;;;;;;;2.75;1.67;;;;;;;21.32;31.21;100063.63;7604130;32;37896;-76
2022/09/23 12:05:21;;;;;;;2.62;1.87;;;;;;;22.49;27.67;100054.34;7614675;32;39495;-78
2022/09/23 12:09:48;;;;;;;3.95;2.17;;;;;;;22.06;27.36;100052.88;7604055;32;40812;-77
2022/09/23 12:14:29;;;;;;;2.75;1.77;;;;;;;20.58;29.16;100051.16;7605704;32;37976;-78
2022/09/23 12:19:10;;;;;;;3.87;1.60;;;;;;;21.34;27.63;100049.41;7607215;32;38076;-78
2022/09/23 12:23:48;;;;;;;2.92;1.73;;;;;;;22.65;26.93;100040.59;7607473;32;40071;-78
2022/09/23 12:28:10;;;;;;;2.25;1.55;;;;;;;23.26;24.28;100041.69;7607442;32;39991;-78
2022/09/23 12:32:26;;;;;;;1.47;1.37;;;;;;;23.97;22.53;100019.87;7607134;32;38005;-78
2022/09/23 12:36:42;;;;;;;2.45;1.90;;;;;;;24.32;23.17;100014.44;7607094;32;37061;-78
2022/09/23 12:40:59;;;;;;;4.85;1.80;;;;;;;22.06;24.65;100025.09;7618307;32;40027;-78
2022/09/23 12:45:37;;;;;;;2.28;1.70;;;;;;;22.79;24.79;100017.19;7607224;32;39856;-78
2022/09/23 12:49:55;;;;;;;3.05;1.62;;;;;;;24.21;21.98;100012.53;7607064;32;38526;-79
2022/09/23 12:54:23;;;;;;;3.67;1.70;;;;;;;24.12;22.81;100012.72;7607005;32;36752;-80
2022/09/23 12:58:42;;;;;;;3.85;1.80;;;;;;;24.23;22.87;100004.62;7606775;32;40160;-76
2022/09/23 13:07:34;;;;;;;3.28;2.00;;;;;;;23.18;24.65;100000.91;7606689;32;38804;-76
2022/09/23 13:11:51;;;;;;;3.72;1.85;;;;;;;22.79;25.90;99998.53;7606806;32;37399;-76
2022/09/23 13:16:33;;;;;;;5.28;1.77;;;;;;;23.06;24.98;99990.66;7617693;32;39397;-75
2022/09/23 13:20:50;;;;;;;2.00;1.55;;;;;;;23.17;25.67;99986.22;7616982;32;39722;-74
2022/09/23 13:25:17;;;;;;;2.58;1.80;;;;;;;23.22;25.65;99985.97;7606077;32;37993;-74
2022/09/23 13:29:54;;;;;;;3.92;1.73;;;;;;;21.60;28.20;100002.06;7617066;32;38298;-75
2022/09/23 13:34:12;;;;;;;5.35;1.90;;;;;;;21.32;27.45;100001.81;7614007;32;39326;-76
2022/09/23 13:38:30;;;;;;;5.65;1.87;;;;;;;21.22;28.33;99997.47;7597025;32;38881;-74
2022/09/23 13:42:52;;;;;;;2.30;1.42;;;;;;;21.25;28.05;99998.75;7580168;33;37127;-75
2022/09/23 13:47:12;;;;;;;2.08;1.60;;;;;;;21.69;28.39;99990.88;7579462;33;37331;-74
2022/09/23 13:51:33;;;;;;;4.10;1.70;;;;;;;21.59;28.92;99994.09;7591095;32;39319;-75
2022/09/23 13:56:06;;;;;;;7.70;1.67;;;;;;;20.61;29.94;99990.38;7579949;33;39966;-73
2022/09/23 14:00:24;;;;;;;7.13;1.90;;;;;;;20.75;31.88;99986.56;7579958;33;37875;-73
2022/09/23 14:04:40;;;;;;;3.72;1.83;;;;;;;20.07;31.60;99988.16;7579934;33;37068;-74
2022/09/23 14:08:59;;;;;;;7.93;2.37;;;;;;;19.49;32.15;99984.84;7579945;33;40041;-73
2022/09/23 14:13:22;;;;;;;5.93;2.72;;;;;;;19.65;32.65;99987.09;7590691;32;40236;-75
2022/09/23 14:18:05;;;;;;;11.88;4.35;;;;;;;19.11;33.74;99979.19;7590468;32;37914;-75
2022/09/23 14:22:26;;;;;;;16.87;6.20;;;;;;;19.48;32.41;99974.91;7589053;32;37058;-75
2022/09/23 14:26:46;;;;;;;10.82;4.90;;;;;;;19.41;33.79;99973.78;7579363;33;39032;-76
2022/09/23 14:31:02;;;;;;;13.07;4.10;;;;;;;19.74;33.05;99973.25;7580136;33;40042;-76
2022/09/23 14:35:36;;;;;;;14.40;4.60;;;;;;;20.04;32.63;99976.91;7589653;32;37894;-75
2022/09/23 14:39:53;;;;;;;9.18;3.55;;;;;;;20.07;33.79;99973.50;7579659;33;37286;-75
2022/09/23 14:44:23;;;;;;;11.52;4.05;;;;;;;19.70;34.27;99968.38;7590360;32;39363;-77
2022/09/23 14:48:40;;;;;;;3.42;2.40;;;;;;;20.22;33.15;99964.66;7589836;32;38941;-76
2022/09/23 14:52:56;;;;;;;5.85;2.22;;;;;;;20.95;28.95;99960.00;7579635;33;37987;-77
2022/09/23 14:57:27;;;;;;;9.50;4.05;;;;;;;20.77;29.95;99959.34;7579075;33;37790;-74
2022/09/23 15:01:43;;;;;;;7.10;3.87;;;;;;;21.20;29.45;99953.47;7590379;32;39134;-74
2022/09/23 15:06:07;;;;;;;2.85;1.85;;;;;;;21.19;29.16;99953.78;7579093;33;39681;-74
2022/09/23 15:10:32;;;;;;;13.57;2.10;;;;;;;20.29;29.52;99953.06;7578680;33;37946;-74
2022/09/23 15:14:53;;;;;;;3.65;1.87;;;;;;;20.11;29.89;99944.03;7589680;32;37397;-73
2022/09/23 15:19:17;;;;;;;3.03;1.60;;;;;;;18.89;32.32;99949.75;7579222;33;40169;-76
2022/09/23 15:23:37;;;;;;;3.30;1.65;;;;;;;18.53;32.45;99942.50;7579374;33;40970;-76
2022/09/23 15:28:15;;;;;;;6.90;1.90;;;;;;;18.66;32.42;99930.53;7584379;32;38649;-77
2022/09/23 15:32:31;;;;;;;3.83;1.40;;;;;;;18.93;33.10;99939.66;7581397;32;37200;-75
2022/09/23 15:36:48;;;;;;;5.37;1.92;;;;;;;19.19;33.56;99930.56;7579440;32;39796;-77
2022/09/23 15:41:05;;;;;;;6.85;1.85;;;;;;;19.61;31.68;99945.47;7578098;33;40941;-79
2022/09/23 15:45:37;;;;;;;1.98;1.50;;;;;;;19.64;32.06;99944.78;7578357;33;38708;-73
2022/09/23 15:49:53;;;;;;;2.58;1.50;;;;;;;20.17;30.26;99937.16;7590959;32;36714;-75
2022/09/23 15:54:12;;;;;;;4.72;1.67;;;;;;;20.44;30.56;99941.41;7581419;32;38987;-74
2022/09/23 15:58:28;;;;;;;6.72;2.87;;;;;;;21.79;28.07;99931.38;7591931;32;39887;-77
2022/09/23 16:02:46;;;;;;;14.00;3.42;;;;;;;21.52;29.36;99928.88;7598634;32;37847;-76
2022/09/23 16:07:04;;;;;;;8.00;3.30;;;;;;;22.99;27.11;99918.13;7603124;32;36198;-77
2022/09/23 16:11:32;;;;;;;7.05;2.62;;;;;;;23.39;26.94;99917.31;7606139;32;39363;-74
2022/09/23 16:15:48;;;;;;;4.85;2.35;;;;;;;24.00;25.65;99921.72;7606385;32;40722;-73
2022/09/23 16:20:05;;;;;;;4.75;2.22;;;;;;;24.32;25.39;99924.47;7596264;32;38758;-73
2022/09/23 16:24:21;;;;;;;5.62;2.22;;;;;;;24.19;26.13;99926.53;7594317;32;37838;-76
2022/09/23 16:28:43;;;;;;;6.87;2.72;;;;;;;24.01;26.93;99931.69;7581139;33;39409;-77
2022/09/23 16:33:00;;;;;;;14.57;3.58;;;;;;;22.63;30.60;99930.97;7587104;32;40929;-74
2022/09/23 16:37:20;;;;;;;30.35;8.05;;;;;;;22.01;32.38;99932.87;7582639;32;38611;-75
2022/09/23 16:41:36;;;;;;;22.15;10.43;;;;;;;20.35;36.21;99937.91;7606372;32;37473;-74
2022/09/23 16:45:52;;;;;;;11.52;5.35;;;;;;;19.64;38.20;99935.69;7606266;32;39001;-75
2022/09/23 16:50:10;;;;;;;19.40;6.50;;;;;;;18.83;40.70;99939.97;7603756;32;39974;-75
2022/09/23 16:54:26;;;;;;;24.10;10.90;;;;;;;18.28;41.75;99947.66;7600149;32;37629;-74
2022/09/23 16:58:43;;;;;;;13.62;6.47;;;;;;;17.86;42.86;99941.63;7576861;32;38092;-74
2022/09/23 17:07:35;;;;;;;14.87;7.03;;;;;;;17.15;44.69;99950.53;7580799;33;39900;-74
2022/09/23 17:12:07;;;;;;;13.43;6.10;;;;;;;16.81;44.96;99962.84;7580104;33;38369;-75
2022/09/23 17:16:28;;;;;;;8.02;3.92;;;;;;;16.69;44.50;99957.06;7579894;33;37937;-74
2022/09/23 17:20:55;;;;;;;14.63;5.85;;;;;;;16.40;45.47;99957.38;7606632;32;39550;-75
2022/09/23 17:25:11;;;;;;;6.95;3.70;;;;;;;16.21;45.41;99961.09;7605897;32;39308;-74
2022/09/23 17:29:27;;;;;;;6.47;3.75;;;;;;;16.33;45.03;99949.53;7606470;32;37948;-73
2022/09/23 17:33:44;;;;;;;4.12;2.55;;;;;;;16.39;44.63;99945.56;7605808;32;37103;-74
2022/09/23 17:38:00;;;;;;;4.80;2.80;;;;;;;15.88;44.74;99952.06;7601198;32;39525;-74
2022/09/23 17:42:17;;;;;;;6.37;2.90;;;;;;;15.56;44.88;99950.97;7600555;32;40322;-74
2022/09/23 17:46:33;;;;;;;5.20;2.97;;;;;;;15.22;45.60;99965.78;7605802;32;37717;-74
2022/09/23 17:51:01;;;;;;;6.90;3.20;;;;;;;15.27;45.34;99964.91;7606238;32;37854;-73
2022/09/23 17:55:18;;;;;;;5.57;2.83;;;;;;;14.89;46.38;99965.72;7594768;32;39567;-74
2022/09/23 17:59:34;;;;;;;7.60;4.12;;;;;;;14.83;46.24;99977.87;7579624;33;40302;-74
2022/09/23 18:03:58;;;;;;;5.97;3.50;;;;;;;14.89;46.53;99978.66;7594032;32;37967;-74
2022/09/23 18:08:14;;;;;;;7.68;3.90;;;;;;;14.91;46.69;99970.94;7583351;32;183018;-74
2022/09/23 18:12:32;;;;;;;7.55;3.47;;;;;;;14.93;46.56;99977.75;7578996;33;39387;-74
2022/09/23 18:16:50;;;;;;;9.57;3.58;;;;;;;14.82;46.82;99987.25;7578269;33;40090;-74
2022/09/23 18:21:07;;;;;;;4.95;3.20;;;;;;;14.60;46.99;99974.91;7585388;32;36903;-74
2022/09/23 18:25:23;;;;;;;5.43;2.65;;;;;;;14.07;47.36;99980.41;7605826;32;36774;-73
2022/09/23 18:29:54;;;;;;;8.75;3.60;;;;;;;13.95;47.18;99974.53;7579864;33;39419;-74
2022/09/23 18:34:12;;;;;;;9.15;4.15;;;;;;;13.77;46.61;99979.63;7579150;33;40825;-72
2022/09/23 18:38:29;;;;;;;5.87;3.58;;;;;;;13.89;46.20;99982.78;7579174;33;36941;-73
2022/09/23 18:42:45;;;;;;;5.55;3.62;;;;;;;14.10;45.77;99971.63;7579831;33;36926;-73
2022/09/23 18:47:02;;;;;;;6.60;4.15;;;;;;;14.13;45.80;99990.25;7578083;32;40047;-73
2022/09/23 18:51:27;;;;;;;7.78;3.97;;;;;;;13.68;47.26;99995.88;7590517;32;39972;-73
2022/09/23 18:55:44;;;;;;;6.05;3.65;;;;;;;13.64;47.26;99985.78;7577799;33;39583;-73
2022/09/23 19:00:00;;;;;;;7.85;3.40;;;;;;;13.47;47.99;99987.03;7578526;32;37836;-73
2022/09/23 19:04:19;;;;;;;10.30;4.20;;;;;;;13.51;47.86;99999.03;7588645;32;40082;-73
2022/09/23 19:08:39;;;;;;;7.03;3.72;;;;;;;13.30;48.38;99997.53;7577627;33;40031;-74
2022/09/23 19:12:56;;;;;;;6.12;3.25;;;;;;;13.33;47.89;100002.44;7579342;32;38732;-73
2022/09/23 19:17:12;;;;;;;13.80;3.47;;;;;;;13.41;47.18;99998.28;7575408;32;37348;-73
2022/09/23 19:21:33;;;;;;;8.63;3.20;;;;;;;12.98;47.93;100000.75;7578465;33;40050;-72
2022/09/23 19:26:01;;;;;;;6.32;3.45;;;;;;;12.84;48.00;99998.63;7577988;33;40766;-72
2022/09/23 19:30:24;;;;;;;7.37;3.40;;;;;;;12.91;47.80;100001.84;7578687;33;38918;-73
2022/09/23 19:34:47;;;;;;;6.22;3.37;;;;;;;12.59;48.68;99988.63;7578231;33;37444;-73
2022/09/23 19:39:25;;;;;;;6.40;3.00;;;;;;;12.75;48.50;99987.44;7581603;32;40134;-73
2022/09/23 19:44:05;;;;;;;6.57;3.35;;;;;;;12.44;49.19;99997.72;7584406;32;39934;-73
2022/09/23 19:48:24;;;;;;;7.68;3.45;;;;;;;12.59;48.26;99992.19;7593698;32;37834;-73
2022/09/23 19:52:41;;;;;;;9.63;3.28;;;;;;;12.59;48.84;99997.66;7580732;32;37153;-73
2022/09/23 19:57:00;;;;;;;9.40;3.50;;;;;;;12.56;48.71;99991.94;7603517;32;38010;-73
2022/09/23 20:01:16;;;;;;;8.15;3.72;;;;;;;12.68;48.43;99997.06;7603546;32;40008;-74
2022/09/23 20:05:32;;;;;;;6.78;3.53;;;;;;;11.99;50.09;99997.56;7598628;32;38026;-73
2022/09/23 20:09:50;;;;;;;6.45;3.55;;;;;;;11.93;50.38;100006.84;7577608;33;35806;-73
2022/09/23 20:14:09;;;;;;;6.45;3.72;;;;;;;11.99;49.79;100003.03;7594234;32;39385;-72
2022/09/23 20:18:25;;;;;;;6.18;3.78;;;;;;;11.95;49.96;99990.19;7593229;32;39013;-73
2022/09/23 20:22:41;;;;;;;5.70;3.30;;;;;;;11.63;50.48;100000.28;7603088;32;38359;-73
2022/09/23 20:27:10;;;;;;;6.90;3.85;;;;;;;12.05;49.52;100001.09;7602711;32;37400;-73
2022/09/23 20:31:30;;;;;;;6.37;3.62;;;;;;;11.73;50.24;99998.63;7602917;32;39460;-73
2022/09/23 20:35:52;;;;;;;8.25;3.70;;;;;;;11.98;49.64;99995.91;7602899;32;40020;-73
2022/09/23 20:40:09;;;;;;;8.45;3.70;;;;;;;11.94;49.79;99999.47;7593255;32;38206;-73